createdAt,value
2017-10-15T00:00:09.182Z,87.82
2017-10-15T00:00:35.331Z,88.02
2017-10-15T00:01:01.504Z,88.02
2017-10-15T00:01:27.721Z,88.02
2017-10-15T00:01:53.866Z,88.4
2017-10-15T00:02:20.051Z,87.73
2017-10-15T00:02:46.199Z,88.4
2017-10-15T00:03:12.427Z,88.11
2017-10-15T00:03:38.588Z,87.54
2017-10-15T00:04:04.735Z,88.21
2017-10-15T00:04:30.924Z,88.11
2017-10-15T00:04:57.057Z,88.02
2017-10-15T00:05:23.330Z,87.44
2017-10-15T00:05:49.442Z,89.07
2017-10-15T00:06:15.607Z,88.21
2017-10-15T00:06:41.769Z,88.11
2017-10-15T00:07:07.930Z,88.21
2017-10-15T00:07:34.079Z,88.4
2017-10-15T00:08:00.249Z,88.11
2017-10-15T00:08:26.389Z,88.69
2017-10-15T00:08:52.606Z,88.11
2017-10-15T00:09:18.797Z,88.31
2017-10-15T00:09:44.984Z,88.21
2017-10-15T00:10:11.210Z,88.31
2017-10-15T00:10:37.353Z,88.31
2017-10-15T00:11:03.499Z,88.31
2017-10-15T00:11:29.662Z,88.79
2017-10-15T00:11:55.845Z,88.4
2017-10-15T00:12:22.010Z,88.11
2017-10-15T00:12:48.149Z,88.21
2017-10-15T00:13:14.317Z,88.31
2017-10-15T00:13:40.485Z,87.92
2017-10-15T00:14:06.631Z,88.4
2017-10-15T00:14:32.783Z,89.07
2017-10-15T00:14:58.971Z,88.69
2017-10-15T00:15:25.103Z,88.02
2017-10-15T00:15:51.274Z,88.59
2017-10-15T00:16:17.417Z,88.11
2017-10-15T00:16:43.615Z,88.02
2017-10-15T00:17:09.749Z,88.69
2017-10-15T00:17:35.898Z,88.11
2017-10-15T00:18:02.058Z,88.31
2017-10-15T00:18:28.211Z,88.21
2017-10-15T00:18:54.382Z,88.4
2017-10-15T00:19:20.539Z,88.4
2017-10-15T00:19:46.701Z,88.59
2017-10-15T00:20:12.861Z,88.49
2017-10-15T00:20:39.030Z,88.59
2017-10-15T00:21:05.202Z,88.02
2017-10-15T00:21:31.360Z,88.31
2017-10-15T00:21:57.531Z,88.31
2017-10-15T00:22:23.759Z,88.31
2017-10-15T00:22:49.873Z,88.31
2017-10-15T00:23:16.050Z,88.02
2017-10-15T00:23:42.190Z,88.31
2017-10-15T00:24:08.334Z,88.31
2017-10-15T00:24:34.489Z,87.54
2017-10-15T00:25:00.651Z,87.82
2017-10-15T00:25:26.822Z,87.63
2017-10-15T00:25:52.984Z,88.02
2017-10-15T00:26:19.144Z,88.21
2017-10-15T00:26:45.328Z,87.63
2017-10-15T00:27:11.482Z,88.21
2017-10-15T00:27:37.676Z,88.31
2017-10-15T00:28:03.813Z,88.31
2017-10-15T00:28:29.967Z,87.92
2017-10-15T00:28:56.142Z,88.21
2017-10-15T00:29:22.307Z,87.73
2017-10-15T00:29:48.483Z,88.69
2017-10-15T00:30:14.677Z,88.02
2017-10-15T00:30:40.827Z,88.31
2017-10-15T00:31:07.001Z,88.21
2017-10-15T00:31:33.189Z,88.21
2017-10-15T00:31:59.365Z,88.79
2017-10-15T00:32:25.562Z,88.11
2017-10-15T00:32:51.714Z,88.02
2017-10-15T00:33:17.891Z,88.11
2017-10-15T00:33:44.505Z,87.92
2017-10-15T00:34:10.698Z,87.44
2017-10-15T00:34:36.830Z,87.63
2017-10-15T00:35:02.980Z,87.63
2017-10-15T00:35:29.134Z,88.4
2017-10-15T00:35:55.308Z,88.02
2017-10-15T00:36:21.468Z,87.63
2017-10-15T00:36:47.638Z,88.21
2017-10-15T00:37:13.788Z,87.63
2017-10-15T00:37:39.935Z,87.73
2017-10-15T00:38:06.088Z,87.44
2017-10-15T00:38:32.229Z,87.44
2017-10-15T00:38:58.432Z,87.82
2017-10-15T00:39:24.577Z,87.63
2017-10-15T00:39:50.758Z,87.59
2017-10-15T00:40:17.127Z,88.07
2017-10-15T00:40:43.279Z,88.17
2017-10-15T00:41:09.437Z,88.17
2017-10-15T00:41:35.601Z,88.17
2017-10-15T00:42:01.766Z,88.35
2017-10-15T00:42:27.928Z,88.26
2017-10-15T00:42:54.136Z,88.17
2017-10-15T00:43:20.304Z,88.74
2017-10-15T00:43:46.448Z,88.93
2017-10-15T00:44:12.590Z,88.26
2017-10-15T00:44:38.799Z,88.45
2017-10-15T00:45:04.937Z,88.93
2017-10-15T00:45:31.132Z,88.74
2017-10-15T00:45:57.329Z,89.22
2017-10-15T00:46:23.534Z,88.74
2017-10-15T00:46:49.700Z,88.74
2017-10-15T00:47:15.889Z,89.03
2017-10-15T00:47:42.408Z,89.51
2017-10-15T00:48:08.585Z,89.22
2017-10-15T00:48:34.745Z,89.51
2017-10-15T00:49:00.925Z,88.65
2017-10-15T00:49:27.074Z,88.84
2017-10-15T00:49:53.283Z,89.41
2017-10-15T00:50:19.401Z,88.65
2017-10-15T00:50:45.550Z,88.84
2017-10-15T00:51:11.702Z,89.03
2017-10-15T00:51:37.857Z,88.98
2017-10-15T00:52:04.027Z,88.74
2017-10-15T00:52:30.219Z,89.12
2017-10-15T00:52:56.341Z,89.03
2017-10-15T00:53:22.545Z,88.74
2017-10-15T00:53:48.726Z,89.41
2017-10-15T00:54:14.919Z,89.03
2017-10-15T00:54:41.142Z,89.22
2017-10-15T00:55:07.315Z,89.03
2017-10-15T00:55:33.793Z,89.08
2017-10-15T00:55:59.951Z,88.74
2017-10-15T00:56:26.106Z,88.98
2017-10-15T00:56:52.313Z,89.41
2017-10-15T00:57:18.452Z,89.51
2017-10-15T00:57:44.604Z,89.03
2017-10-15T00:58:10.776Z,88.65
2017-10-15T00:58:36.916Z,88.93
2017-10-15T00:59:03.063Z,88.79
2017-10-15T00:59:29.222Z,88.84
2017-10-15T00:59:55.391Z,88.93
2017-10-15T01:00:21.587Z,88.93
2017-10-15T01:00:47.735Z,89.32
2017-10-15T01:01:13.901Z,88.84
2017-10-15T01:01:40.129Z,88.84
2017-10-15T01:02:06.207Z,88.89
2017-10-15T01:02:32.368Z,89.03
2017-10-15T01:02:58.521Z,89.22
2017-10-15T01:03:24.670Z,88.89
2017-10-15T01:03:50.825Z,89.22
2017-10-15T01:04:16.977Z,89.32
2017-10-15T01:04:43.126Z,88.98
2017-10-15T01:05:09.280Z,89.22
2017-10-15T01:05:35.472Z,89.12
2017-10-15T01:06:01.618Z,89.03
2017-10-15T01:06:27.758Z,88.84
2017-10-15T01:06:53.910Z,88.55
2017-10-15T01:07:20.068Z,88.65
2017-10-15T01:07:46.213Z,88.74
2017-10-15T01:08:12.355Z,88.84
2017-10-15T01:08:38.503Z,88.55
2017-10-15T01:09:04.666Z,88.65
2017-10-15T01:09:30.808Z,88.65
2017-10-15T01:09:56.958Z,88.45
2017-10-15T01:10:23.157Z,88.17
2017-10-15T01:10:49.307Z,88.17
2017-10-15T01:11:15.444Z,88.65
2017-10-15T01:11:41.625Z,88.17
2017-10-15T01:12:07.780Z,88.17
2017-10-15T01:12:33.921Z,87.88
2017-10-15T01:13:00.074Z,88.55
2017-10-15T01:13:26.228Z,88.07
2017-10-15T01:13:52.374Z,87.88
2017-10-15T01:14:18.526Z,87.78
2017-10-15T01:14:44.665Z,88.26
2017-10-15T01:15:10.815Z,87.88
2017-10-15T01:15:36.968Z,87.98
2017-10-15T01:16:03.135Z,88.65
2017-10-15T01:16:29.306Z,88.17
2017-10-15T01:16:55.473Z,88.35
2017-10-15T01:17:21.625Z,88.65
2017-10-15T01:17:47.765Z,88.26
2017-10-15T01:18:13.917Z,88.74
2017-10-15T01:18:40.096Z,88.07
2017-10-15T01:19:06.249Z,88.35
2017-10-15T01:19:32.392Z,88.26
2017-10-15T01:19:58.552Z,88.65
2017-10-15T01:20:24.706Z,87.68
2017-10-15T01:20:50.855Z,87.68
2017-10-15T01:21:16.996Z,88.17
2017-10-15T01:21:43.142Z,88.07
2017-10-15T01:22:09.292Z,88.07
2017-10-15T01:22:35.445Z,88.26
2017-10-15T01:23:01.616Z,88.17
2017-10-15T01:23:27.790Z,88.07
2017-10-15T01:23:53.943Z,87.98
2017-10-15T01:24:20.092Z,87.68
2017-10-15T01:24:46.237Z,87.88
2017-10-15T01:25:12.397Z,87.59
2017-10-15T01:25:38.549Z,87.98
2017-10-15T01:26:04.690Z,87.68
2017-10-15T01:26:30.844Z,88.07
2017-10-15T01:26:56.986Z,88.26
2017-10-15T01:27:23.141Z,88.65
2017-10-15T01:27:49.287Z,88.74
2017-10-15T01:28:15.438Z,88.17
2017-10-15T01:28:41.584Z,88.17
2017-10-15T01:29:07.730Z,88.17
2017-10-15T01:29:33.878Z,88.45
2017-10-15T01:30:00.029Z,88.17
2017-10-15T01:30:26.193Z,88.26
2017-10-15T01:30:52.356Z,88.74
2017-10-15T01:31:18.499Z,88.26
2017-10-15T01:31:44.662Z,88.26
2017-10-15T01:32:10.797Z,88.26
2017-10-15T01:32:36.978Z,88.55
2017-10-15T01:33:03.129Z,88.45
2017-10-15T01:33:29.273Z,88.26
2017-10-15T01:33:55.424Z,88.45
2017-10-15T01:34:21.568Z,88.26
2017-10-15T01:34:47.718Z,88.26
2017-10-15T01:35:13.870Z,88.17
2017-10-15T01:35:40.019Z,88.26
2017-10-15T01:36:06.157Z,88.55
2017-10-15T01:36:32.336Z,88.07
2017-10-15T01:36:58.483Z,87.4
2017-10-15T01:37:24.635Z,87.98
2017-10-15T01:37:50.777Z,88.17
2017-10-15T01:38:16.922Z,87.59
2017-10-15T01:38:43.079Z,88.17
2017-10-15T01:39:09.217Z,87.98
2017-10-15T01:39:35.367Z,87.98
2017-10-15T01:40:01.514Z,87.98
2017-10-15T01:40:27.675Z,87.98
2017-10-15T01:40:53.819Z,88.07
2017-10-15T01:41:19.965Z,88.17
2017-10-15T01:41:46.114Z,87.98
2017-10-15T01:42:12.280Z,88.17
2017-10-15T01:42:38.427Z,88.26
2017-10-15T01:43:04.577Z,88.65
2017-10-15T01:43:30.724Z,88.26
2017-10-15T01:43:56.885Z,87.84
2017-10-15T01:44:23.019Z,88.84
2017-10-15T01:44:49.173Z,88.12
2017-10-15T01:45:15.314Z,88.17
2017-10-15T01:45:41.492Z,88.26
2017-10-15T01:46:07.637Z,88.17
2017-10-15T01:46:33.786Z,88.22
2017-10-15T01:46:59.937Z,88.35
2017-10-15T01:47:26.083Z,88.26
2017-10-15T01:47:52.227Z,88.45
2017-10-15T01:48:18.382Z,88.02
2017-10-15T01:48:44.554Z,88.41
2017-10-15T01:49:10.723Z,88.02
2017-10-15T01:49:36.877Z,88.02
2017-10-15T01:50:03.020Z,88.31
2017-10-15T01:50:29.163Z,88.22
2017-10-15T01:50:55.315Z,88.31
2017-10-15T01:51:21.458Z,88.51
2017-10-15T01:51:47.610Z,88.41
2017-10-15T01:52:13.755Z,88.12
2017-10-15T01:52:39.906Z,88.22
2017-10-15T01:53:06.042Z,88.6
2017-10-15T01:53:32.191Z,88.79
2017-10-15T01:53:58.337Z,88.6
2017-10-15T01:54:24.493Z,88.6
2017-10-15T01:54:50.643Z,88.51
2017-10-15T01:55:16.782Z,88.79
2017-10-15T01:55:42.933Z,88.79
2017-10-15T01:56:09.099Z,88.79
2017-10-15T01:56:35.260Z,88.6
2017-10-15T01:57:01.407Z,88.6
2017-10-15T01:57:27.555Z,88.51
2017-10-15T01:57:53.705Z,88.89
2017-10-15T01:58:19.857Z,88.41
2017-10-15T01:58:45.997Z,88.51
2017-10-15T01:59:12.140Z,88.6
2017-10-15T01:59:38.295Z,89.08
2017-10-15T02:00:04.434Z,89.47
2017-10-15T02:00:30.580Z,89.27
2017-10-15T02:00:56.730Z,89.65
2017-10-15T02:01:22.880Z,89.47
2017-10-15T02:01:49.019Z,89.51
2017-10-15T02:02:15.163Z,89.47
2017-10-15T02:02:41.315Z,89.71
2017-10-15T02:03:07.487Z,89.42
2017-10-15T02:03:33.640Z,89.47
2017-10-15T02:03:59.786Z,89.42
2017-10-15T02:04:25.931Z,89.32
2017-10-15T02:04:52.083Z,89.13
2017-10-15T02:05:18.222Z,89.18
2017-10-15T02:05:44.377Z,89.42
2017-10-15T02:06:10.516Z,89.9
2017-10-15T02:06:36.695Z,89.9
2017-10-15T02:07:02.836Z,89.9
2017-10-15T02:07:28.987Z,90.09
2017-10-15T02:07:55.141Z,89.71
2017-10-15T02:08:21.284Z,90.38
2017-10-15T02:08:47.428Z,89.8
2017-10-15T02:09:13.580Z,89.8
2017-10-15T02:09:39.717Z,90.19
2017-10-15T02:10:05.867Z,90.47
2017-10-15T02:10:32.011Z,90.57
2017-10-15T02:10:58.193Z,90.57
2017-10-15T02:11:24.345Z,90.28
2017-10-15T02:11:50.490Z,90.28
2017-10-15T02:12:16.664Z,90.47
2017-10-15T02:12:42.803Z,90.47
2017-10-15T02:13:08.984Z,89.9
2017-10-15T02:13:35.182Z,90.57
2017-10-15T02:14:01.352Z,90.47
2017-10-15T02:14:27.509Z,90.19
2017-10-15T02:14:53.642Z,90.38
2017-10-15T02:15:19.796Z,90.28
2017-10-15T02:15:45.943Z,89.9
2017-10-15T02:16:12.085Z,90.47
2017-10-15T02:16:38.235Z,89.71
2017-10-15T02:17:04.377Z,90.09
2017-10-15T02:17:30.520Z,89.8
2017-10-15T02:17:56.670Z,89.71
2017-10-15T02:18:22.817Z,89.42
2017-10-15T02:18:48.962Z,89.42
2017-10-15T02:19:15.101Z,89.42
2017-10-15T02:19:41.279Z,89.61
2017-10-15T02:20:07.403Z,89.51
2017-10-15T02:20:33.567Z,89.9
2017-10-15T02:20:59.717Z,90.28
2017-10-15T02:21:25.863Z,89.9
2017-10-15T02:21:52.007Z,89.8
2017-10-15T02:22:18.156Z,89.42
2017-10-15T02:22:44.309Z,89.71
2017-10-15T02:23:10.449Z,89.42
2017-10-15T02:23:36.591Z,89.42
2017-10-15T02:24:02.766Z,89.42
2017-10-15T02:24:28.914Z,89.9
2017-10-15T02:24:55.070Z,89.9
2017-10-15T02:25:21.223Z,89.9
2017-10-15T02:25:47.359Z,89.9
2017-10-15T02:26:13.498Z,89.71
2017-10-15T02:26:39.651Z,89.61
2017-10-15T02:27:05.806Z,89.42
2017-10-15T02:27:31.944Z,89.51
2017-10-15T02:27:58.093Z,89.32
2017-10-15T02:28:24.235Z,89.23
2017-10-15T02:28:50.384Z,89.71
2017-10-15T02:29:16.529Z,89.42
2017-10-15T02:29:42.680Z,89.13
2017-10-15T02:30:08.829Z,89.71
2017-10-15T02:30:34.975Z,89.23
2017-10-15T02:31:01.118Z,90.19
2017-10-15T02:31:27.267Z,90.09
2017-10-15T02:31:53.416Z,90.28
2017-10-15T02:32:19.560Z,90.09
2017-10-15T02:32:45.704Z,90.47
2017-10-15T02:33:11.853Z,90.33
2017-10-15T02:33:38.016Z,90.28
2017-10-15T02:34:04.162Z,90.09
2017-10-15T02:34:30.325Z,90.19
2017-10-15T02:34:56.468Z,90.38
2017-10-15T02:35:22.613Z,89.8
2017-10-15T02:35:48.753Z,90.09
2017-10-15T02:36:14.927Z,90
2017-10-15T02:36:41.081Z,89.9
2017-10-15T02:37:07.224Z,89.9
2017-10-15T02:37:33.372Z,89.9
2017-10-15T02:37:59.515Z,89.42
2017-10-15T02:38:25.666Z,89.61
2017-10-15T02:38:51.811Z,89.32
2017-10-15T02:39:17.955Z,89.13
2017-10-15T02:39:44.104Z,89.23
2017-10-15T02:40:10.255Z,89.04
2017-10-15T02:40:36.396Z,89.13
2017-10-15T02:41:02.543Z,89.23
2017-10-15T02:41:28.693Z,89.71
2017-10-15T02:41:54.832Z,89.04
2017-10-15T02:42:20.984Z,89.32
2017-10-15T02:42:47.137Z,89.42
2017-10-15T02:43:13.275Z,88.65
2017-10-15T02:43:39.430Z,89.04
2017-10-15T02:44:05.572Z,89.13
2017-10-15T02:44:31.711Z,89.42
2017-10-15T02:44:57.863Z,88.75
2017-10-15T02:45:24.005Z,88.94
2017-10-15T02:45:50.154Z,88.94
2017-10-15T02:46:16.311Z,89.04
2017-10-15T02:46:42.465Z,89.04
2017-10-15T02:47:08.613Z,88.65
2017-10-15T02:47:34.768Z,89.13
2017-10-15T02:48:00.920Z,88.84
2017-10-15T02:48:27.087Z,89.23
2017-10-15T02:48:53.232Z,88.65
2017-10-15T02:49:19.377Z,88.46
2017-10-15T02:49:45.524Z,88.56
2017-10-15T02:50:11.676Z,88.56
2017-10-15T02:50:37.817Z,88.56
2017-10-15T02:51:03.966Z,88.56
2017-10-15T02:51:30.109Z,88.61
2017-10-15T02:51:56.283Z,88.9
2017-10-15T02:52:22.429Z,88.9
2017-10-15T02:52:48.579Z,88.51
2017-10-15T02:53:14.740Z,88.51
2017-10-15T02:53:40.887Z,88.61
2017-10-15T02:54:07.069Z,88.51
2017-10-15T02:54:33.214Z,88.8
2017-10-15T02:54:59.364Z,89.37
2017-10-15T02:55:25.514Z,89.66
2017-10-15T02:55:51.655Z,89.57
2017-10-15T02:56:17.804Z,89.28
2017-10-15T02:56:43.954Z,89.66
2017-10-15T02:57:10.102Z,89.09
2017-10-15T02:57:36.249Z,89.42
2017-10-15T02:58:02.392Z,88.61
2017-10-15T02:58:28.535Z,88.94
2017-10-15T02:58:54.689Z,88.99
2017-10-15T02:59:20.830Z,88.61
2017-10-15T02:59:46.979Z,89.09
2017-10-15T03:00:13.155Z,89.32
2017-10-15T03:00:39.307Z,88.9
2017-10-15T03:01:05.449Z,88.99
2017-10-15T03:01:31.604Z,88.99
2017-10-15T03:01:57.753Z,89.37
2017-10-15T03:02:23.899Z,89.18
2017-10-15T03:02:50.044Z,89.18
2017-10-15T03:03:16.187Z,88.7
2017-10-15T03:03:42.344Z,88.7
2017-10-15T03:04:08.483Z,88.61
2017-10-15T03:04:34.631Z,88.8
2017-10-15T03:05:00.807Z,89.18
2017-10-15T03:05:26.950Z,88.84
2017-10-15T03:05:53.095Z,88.8
2017-10-15T03:06:19.247Z,88.9
2017-10-15T03:06:45.386Z,88.8
2017-10-15T03:07:11.532Z,88.99
2017-10-15T03:07:37.679Z,88.65
2017-10-15T03:08:03.829Z,89.04
2017-10-15T03:08:30.011Z,89.66
2017-10-15T03:08:56.161Z,89.28
2017-10-15T03:09:22.305Z,89.76
2017-10-15T03:09:48.450Z,89.28
2017-10-15T03:10:14.601Z,88.9
2017-10-15T03:10:40.750Z,89.18
2017-10-15T03:11:06.895Z,89.18
2017-10-15T03:11:33.038Z,89.18
2017-10-15T03:11:59.191Z,89.66
2017-10-15T03:12:25.329Z,89.09
2017-10-15T03:12:51.474Z,89.66
2017-10-15T03:13:17.625Z,89.37
2017-10-15T03:13:43.767Z,89.57
2017-10-15T03:14:09.915Z,89.09
2017-10-15T03:14:36.065Z,89.95
2017-10-15T03:15:02.205Z,89.86
2017-10-15T03:15:28.352Z,89.86
2017-10-15T03:15:54.501Z,89.76
2017-10-15T03:16:20.649Z,90.23
2017-10-15T03:16:46.793Z,90.43
2017-10-15T03:17:12.968Z,89.76
2017-10-15T03:17:39.105Z,89.86
2017-10-15T03:18:05.261Z,90.33
2017-10-15T03:18:31.411Z,90.23
2017-10-15T03:18:57.554Z,90.33
2017-10-15T03:19:23.700Z,90.43
2017-10-15T03:19:49.854Z,90.81
2017-10-15T03:20:15.999Z,90.72
2017-10-15T03:20:42.143Z,90.53
2017-10-15T03:21:08.311Z,90.23
2017-10-15T03:21:34.461Z,90.43
2017-10-15T03:22:00.610Z,90.14
2017-10-15T03:22:26.754Z,90.14
2017-10-15T03:22:52.909Z,89.66
2017-10-15T03:23:19.076Z,89.86
2017-10-15T03:23:45.227Z,90.05
2017-10-15T03:24:11.376Z,90.05
2017-10-15T03:24:37.519Z,89.76
2017-10-15T03:25:03.696Z,89.47
2017-10-15T03:25:29.846Z,89.66
2017-10-15T03:25:55.986Z,89.57
2017-10-15T03:26:22.140Z,89.86
2017-10-15T03:26:48.280Z,90.05
2017-10-15T03:27:14.429Z,89.66
2017-10-15T03:27:40.575Z,90.05
2017-10-15T03:28:06.727Z,90.05
2017-10-15T03:28:32.869Z,90.53
2017-10-15T03:28:59.015Z,90.72
2017-10-15T03:29:25.164Z,91
2017-10-15T03:29:51.307Z,90.72
2017-10-15T03:30:17.485Z,91.39
2017-10-15T03:30:43.634Z,91.86
2017-10-15T03:31:09.789Z,91.92
2017-10-15T03:31:35.927Z,91.82
2017-10-15T03:32:02.070Z,92.11
2017-10-15T03:32:28.225Z,91.82
2017-10-15T03:32:54.392Z,91.82
2017-10-15T03:33:20.543Z,91.82
2017-10-15T03:33:46.687Z,91.86
2017-10-15T03:34:12.836Z,91.58
2017-10-15T03:34:38.977Z,91.58
2017-10-15T03:35:05.123Z,91.67
2017-10-15T03:35:31.269Z,91.29
2017-10-15T03:35:57.424Z,91.39
2017-10-15T03:36:23.574Z,91.39
2017-10-15T03:36:49.719Z,91.1
2017-10-15T03:37:15.865Z,91.29
2017-10-15T03:37:42.008Z,91.44
2017-10-15T03:38:08.157Z,91.19
2017-10-15T03:38:34.303Z,91.39
2017-10-15T03:39:00.448Z,91.77
2017-10-15T03:39:26.591Z,91.67
2017-10-15T03:39:52.744Z,91.77
2017-10-15T03:40:18.885Z,91.77
2017-10-15T03:40:45.037Z,91.86
2017-10-15T03:41:11.176Z,91.58
2017-10-15T03:41:37.332Z,91.67
2017-10-15T03:42:03.471Z,91.96
2017-10-15T03:42:29.623Z,91.96
2017-10-15T03:42:55.766Z,91.86
2017-10-15T03:43:21.907Z,91.67
2017-10-15T03:43:48.080Z,91.86
2017-10-15T03:44:14.220Z,91.67
2017-10-15T03:44:40.391Z,91.58
2017-10-15T03:45:06.545Z,91.29
2017-10-15T03:45:32.694Z,91.49
2017-10-15T03:45:58.838Z,91.49
2017-10-15T03:46:24.989Z,91.29
2017-10-15T03:46:51.129Z,91.19
2017-10-15T03:47:17.276Z,91.96
2017-10-15T03:47:43.429Z,91.39
2017-10-15T03:48:09.580Z,91.39
2017-10-15T03:48:35.723Z,91.1
2017-10-15T03:49:01.874Z,91.29
2017-10-15T03:49:28.042Z,91.19
2017-10-15T03:49:54.184Z,91.1
2017-10-15T03:50:20.337Z,91.19
2017-10-15T03:50:46.474Z,91.29
2017-10-15T03:51:12.651Z,91.19
2017-10-15T03:51:38.800Z,91.19
2017-10-15T03:52:04.943Z,91.1
2017-10-15T03:52:31.082Z,91.39
2017-10-15T03:52:57.236Z,91.1
2017-10-15T03:53:23.381Z,91.19
2017-10-15T03:53:49.529Z,91.49
2017-10-15T03:54:15.673Z,91.82
2017-10-15T03:54:41.823Z,91.77
2017-10-15T03:55:07.965Z,91.19
2017-10-15T03:55:34.118Z,91.34
2017-10-15T03:56:00.273Z,91.63
2017-10-15T03:56:26.415Z,91.63
2017-10-15T03:56:52.560Z,91.44
2017-10-15T03:57:18.701Z,91.82
2017-10-15T03:57:44.852Z,91.05
2017-10-15T03:58:10.994Z,91.15
2017-10-15T03:58:37.146Z,91.34
2017-10-15T03:59:03.285Z,91.44
2017-10-15T03:59:29.430Z,91.34
2017-10-15T03:59:55.581Z,90.96
2017-10-15T04:00:21.726Z,91.15
2017-10-15T04:00:47.878Z,90.96
2017-10-15T04:01:14.024Z,90.96
2017-10-15T04:01:40.173Z,90.96
2017-10-15T04:02:06.343Z,91.15
2017-10-15T04:02:32.500Z,91.15
2017-10-15T04:02:58.655Z,91.15
2017-10-15T04:03:24.806Z,91.63
2017-10-15T04:03:50.972Z,91.72
2017-10-15T04:04:17.123Z,91.63
2017-10-15T04:04:43.268Z,91.44
2017-10-15T04:05:09.417Z,91.25
2017-10-15T04:05:35.591Z,91.25
2017-10-15T04:06:01.760Z,91.44
2017-10-15T04:06:27.907Z,91.34
2017-10-15T04:06:54.089Z,91.44
2017-10-15T04:07:20.258Z,91.25
2017-10-15T04:07:46.398Z,91.44
2017-10-15T04:08:12.550Z,91.34
2017-10-15T04:08:38.690Z,90.67
2017-10-15T04:09:04.845Z,90.67
2017-10-15T04:09:30.989Z,90.86
2017-10-15T04:09:57.138Z,90.77
2017-10-15T04:10:23.276Z,90.86
2017-10-15T04:10:49.428Z,90.48
2017-10-15T04:11:15.570Z,90.48
2017-10-15T04:11:41.711Z,90.58
2017-10-15T04:12:07.865Z,90.67
2017-10-15T04:12:34.007Z,90.77
2017-10-15T04:13:00.155Z,90.58
2017-10-15T04:13:26.297Z,90.96
2017-10-15T04:13:52.446Z,91.15
2017-10-15T04:14:18.596Z,90.77
2017-10-15T04:14:44.740Z,90.77
2017-10-15T04:15:10.889Z,91.63
2017-10-15T04:15:37.035Z,91.34
2017-10-15T04:16:03.217Z,91.15
2017-10-15T04:16:29.384Z,91.82
2017-10-15T04:16:55.561Z,91.53
2017-10-15T04:17:21.721Z,92.01
2017-10-15T04:17:47.871Z,91.82
2017-10-15T04:18:14.012Z,92.01
2017-10-15T04:18:40.179Z,91.82
2017-10-15T04:19:06.337Z,91.87
2017-10-15T04:19:32.529Z,92.11
2017-10-15T04:19:58.633Z,92.49
2017-10-15T04:20:24.774Z,92.21
2017-10-15T04:20:50.917Z,92.3
2017-10-15T04:21:17.068Z,92.4
2017-10-15T04:21:43.220Z,92.4
2017-10-15T04:22:09.369Z,92.49
2017-10-15T04:22:35.519Z,92.58
2017-10-15T04:23:01.657Z,92.4
2017-10-15T04:23:27.802Z,92.58
2017-10-15T04:23:53.972Z,92.4
2017-10-15T04:24:20.116Z,92.58
2017-10-15T04:24:46.265Z,91.82
2017-10-15T04:25:12.419Z,91.63
2017-10-15T04:25:38.569Z,91.72
2017-10-15T04:26:04.706Z,91.82
2017-10-15T04:26:30.853Z,91.44
2017-10-15T04:26:57.025Z,91.34
2017-10-15T04:27:23.166Z,91.53
2017-10-15T04:27:49.314Z,91.53
2017-10-15T04:28:15.467Z,91.34
2017-10-15T04:28:41.620Z,91.15
2017-10-15T04:29:07.760Z,91.05
2017-10-15T04:29:33.901Z,91.44
2017-10-15T04:30:00.048Z,91.15
2017-10-15T04:30:26.195Z,91.44
2017-10-15T04:30:52.370Z,91.53
2017-10-15T04:31:18.521Z,91.44
2017-10-15T04:31:44.669Z,91.53
2017-10-15T04:32:10.810Z,90.67
2017-10-15T04:32:36.954Z,90.77
2017-10-15T04:33:03.108Z,90.48
2017-10-15T04:33:29.255Z,90.67
2017-10-15T04:33:55.396Z,91.63
2017-10-15T04:34:21.545Z,91.34
2017-10-15T04:34:47.693Z,91.25
2017-10-15T04:35:13.862Z,91.53
2017-10-15T04:35:40.019Z,91.34
2017-10-15T04:36:06.181Z,91.34
2017-10-15T04:36:32.333Z,90.96
2017-10-15T04:36:58.484Z,91.63
2017-10-15T04:37:24.632Z,91.63
2017-10-15T04:37:50.781Z,91.92
2017-10-15T04:38:16.925Z,91.92
2017-10-15T04:38:43.080Z,91.92
2017-10-15T04:39:09.226Z,91.92
2017-10-15T04:39:35.364Z,91.97
2017-10-15T04:40:01.507Z,91.92
2017-10-15T04:40:27.685Z,92.11
2017-10-15T04:40:53.833Z,92.4
2017-10-15T04:41:19.980Z,92.44
2017-10-15T04:41:46.128Z,92.44
2017-10-15T04:42:12.270Z,92.44
2017-10-15T04:42:38.419Z,92.25
2017-10-15T04:43:04.561Z,92.25
2017-10-15T04:43:30.713Z,92.16
2017-10-15T04:43:56.855Z,92.35
2017-10-15T04:44:23.005Z,92.35
2017-10-15T04:44:49.149Z,92.3
2017-10-15T04:45:15.289Z,93.12
2017-10-15T04:45:41.439Z,92.35
2017-10-15T04:46:07.593Z,92.16
2017-10-15T04:46:33.735Z,92.21
2017-10-15T04:46:59.912Z,92.4
2017-10-15T04:47:26.060Z,92.58
2017-10-15T04:47:52.197Z,91.82
2017-10-15T04:48:18.343Z,91.92
2017-10-15T04:48:44.489Z,91.92
2017-10-15T04:49:10.634Z,91.63
2017-10-15T04:49:36.810Z,91.49
2017-10-15T04:50:02.953Z,91.77
2017-10-15T04:50:29.105Z,91.68
2017-10-15T04:50:55.256Z,92.06
2017-10-15T04:51:21.393Z,92.3
2017-10-15T04:51:47.547Z,92.01
2017-10-15T04:52:13.690Z,91.92
2017-10-15T04:52:39.837Z,92.01
2017-10-15T04:53:06.004Z,91.92
2017-10-15T04:53:32.153Z,92.01
2017-10-15T04:53:58.295Z,91.63
2017-10-15T04:54:24.441Z,91.34
2017-10-15T04:54:50.591Z,91.63
2017-10-15T04:55:16.740Z,91.44
2017-10-15T04:55:42.887Z,91.15
2017-10-15T04:56:09.033Z,91.44
2017-10-15T04:56:35.174Z,91.25
2017-10-15T04:57:01.318Z,91.44
2017-10-15T04:57:27.473Z,91.63
2017-10-15T04:57:53.612Z,90.67
2017-10-15T04:58:19.764Z,90.58
2017-10-15T04:58:45.915Z,90.67
2017-10-15T04:59:12.055Z,91.25
2017-10-15T04:59:38.202Z,91.53
2017-10-15T05:00:04.356Z,91.25
2017-10-15T05:00:30.503Z,91.05
2017-10-15T05:00:56.649Z,91.05
2017-10-15T05:01:22.796Z,91.25
2017-10-15T05:01:48.943Z,91.34
2017-10-15T05:02:15.118Z,91.53
2017-10-15T05:02:41.264Z,91.72
2017-10-15T05:03:07.411Z,91.25
2017-10-15T05:03:33.551Z,91.34
2017-10-15T05:03:59.704Z,91.53
2017-10-15T05:04:25.845Z,91.53
2017-10-15T05:04:51.991Z,91.44
2017-10-15T05:05:18.142Z,91.63
2017-10-15T05:05:44.291Z,91.63
2017-10-15T05:06:10.433Z,91.53
2017-10-15T05:06:36.587Z,91.15
2017-10-15T05:07:02.726Z,91.15
2017-10-15T05:07:28.875Z,91.82
2017-10-15T05:07:55.021Z,91.05
2017-10-15T05:08:21.170Z,91.11
2017-10-15T05:08:47.318Z,91.58
2017-10-15T05:09:13.456Z,91.11
2017-10-15T05:09:39.633Z,91.58
2017-10-15T05:10:05.776Z,91.77
2017-10-15T05:10:31.932Z,91.77
2017-10-15T05:10:58.072Z,91.68
2017-10-15T05:11:24.258Z,91.77
2017-10-15T05:11:50.392Z,91.97
2017-10-15T05:12:16.543Z,91.58
2017-10-15T05:12:42.693Z,91.77
2017-10-15T05:13:08.871Z,92.06
2017-10-15T05:13:35.009Z,91.58
2017-10-15T05:14:01.160Z,91.77
2017-10-15T05:14:27.311Z,91.87
2017-10-15T05:14:53.460Z,92.06
2017-10-15T05:15:19.606Z,91.68
2017-10-15T05:15:45.751Z,91.87
2017-10-15T05:16:11.927Z,92.63
2017-10-15T05:16:38.071Z,92.63
2017-10-15T05:17:04.216Z,92.16
2017-10-15T05:17:30.365Z,92.44
2017-10-15T05:17:56.513Z,92.44
2017-10-15T05:18:22.653Z,92.35
2017-10-15T05:18:48.802Z,92.44
2017-10-15T05:19:14.954Z,92.16
2017-10-15T05:19:41.095Z,92.25
2017-10-15T05:20:07.239Z,92.54
2017-10-15T05:20:33.414Z,92.83
2017-10-15T05:20:59.554Z,93.21
2017-10-15T05:21:25.698Z,93.45
2017-10-15T05:21:51.866Z,94.02
2017-10-15T05:22:17.990Z,93.74
2017-10-15T05:22:44.140Z,93.45
2017-10-15T05:23:10.286Z,93.69
2017-10-15T05:23:36.434Z,93.69
2017-10-15T05:24:02.580Z,93.55
2017-10-15T05:24:28.733Z,93.84
2017-10-15T05:24:54.882Z,93.59
2017-10-15T05:25:21.023Z,93.45
2017-10-15T05:25:47.168Z,93.84
2017-10-15T05:26:13.314Z,94.02
2017-10-15T05:26:39.468Z,94.21
2017-10-15T05:27:05.606Z,93.93
2017-10-15T05:27:31.751Z,93.93
2017-10-15T05:27:57.902Z,94.21
2017-10-15T05:28:24.050Z,94.21
2017-10-15T05:28:50.196Z,94.12
2017-10-15T05:29:16.340Z,94.02
2017-10-15T05:29:42.491Z,94.02
2017-10-15T05:30:08.653Z,94.12
2017-10-15T05:30:34.804Z,93.64
2017-10-15T05:31:00.951Z,93.84
2017-10-15T05:31:27.099Z,93.59
2017-10-15T05:31:53.250Z,93.55
2017-10-15T05:32:19.391Z,93.93
2017-10-15T05:32:45.535Z,93.79
2017-10-15T05:33:11.685Z,93.69
2017-10-15T05:33:37.825Z,93.74
2017-10-15T05:34:03.972Z,93.07
2017-10-15T05:34:30.117Z,93.4
2017-10-15T05:34:56.259Z,93.88
2017-10-15T05:35:22.406Z,93.3
2017-10-15T05:35:48.579Z,93.4
2017-10-15T05:36:14.726Z,92.92
2017-10-15T05:36:40.873Z,93.21
2017-10-15T05:37:07.022Z,93.21
2017-10-15T05:37:33.161Z,93.12